sensor_id;sensor_type;location;lat;lon;timestamp;P1;durP1;ratioP1;P2;durP2;ratioP2
8337;SDS011;4206;48.634;9.516;2022-09-30T00:01:32;6.73;;;4.13;;
8337;SDS011;4206;48.634;9.516;2022-09-30T00:03:58;6.40;;;3.50;;
8337;SDS011;4206;48.634;9.516;2022-09-30T00:06:24;9.57;;;3.97;;
8337;SDS011;4206;48.634;9.516;2022-09-30T00:08:51;6.77;;;4.20;;
8337;SDS011;4206;48.634;9.516;2022-09-30T00:11:19;7.07;;;4.30;;
8337;SDS011;4206;48.634;9.516;2022-09-30T00:13:49;8.97;;;4.30;;
8337;SDS011;4206;48.634;9.516;2022-09-30T00:16:16;6.47;;;4.17;;
8337;SDS011;4206;48.634;9.516;2022-09-30T00:18:45;6.33;;;4.10;;
8337;SDS011;4206;48.634;9.516;2022-09-30T00:21:11;5.33;;;4.40;;
8337;SDS011;4206;48.634;9.516;2022-09-30T00:23:38;8.93;;;5.03;;
8337;SDS011;4206;48.634;9.516;2022-09-30T00:26:06;6.30;;;4.37;;
8337;SDS011;4206;48.634;9.516;2022-09-30T00:28:36;16.83;;;4.40;;
8337;SDS011;4206;48.634;9.516;2022-09-30T00:31:04;5.47;;;4.70;;
8337;SDS011;4206;48.634;9.516;2022-09-30T00:33:31;4.47;;;3.77;;
8337;SDS011;4206;48.634;9.516;2022-09-30T00:35:58;7.50;;;4.23;;
8337;SDS011;4206;48.634;9.516;2022-09-30T00:38:24;6.47;;;4.50;;
8337;SDS011;4206;48.634;9.516;2022-09-30T00:40:50;5.50;;;4.43;;
8337;SDS011;4206;48.634;9.516;2022-09-30T00:43:17;5.60;;;4.63;;
8337;SDS011;4206;48.634;9.516;2022-09-30T00:45:48;5.53;;;3.70;;
8337;SDS011;4206;48.634;9.516;2022-09-30T00:48:20;5.53;;;3.90;;
8337;SDS011;4206;48.634;9.516;2022-09-30T00:50:53;5.17;;;3.93;;
8337;SDS011;4206;48.634;9.516;2022-09-30T00:56:06;7.93;;;4.40;;
8337;SDS011;4206;48.634;9.516;2022-09-30T00:58:38;5.63;;;4.37;;
8337;SDS011;4206;48.634;9.516;2022-09-30T01:01:05;5.30;;;4.07;;
8337;SDS011;4206;48.634;9.516;2022-09-30T01:03:33;8.67;;;5.77;;
8337;SDS011;4206;48.634;9.516;2022-09-30T01:06:02;8.60;;;4.80;;
8337;SDS011;4206;48.634;9.516;2022-09-30T01:08:28;5.00;;;4.50;;
8337;SDS011;4206;48.634;9.516;2022-09-30T01:10:57;7.23;;;5.00;;
8337;SDS011;4206;48.634;9.516;2022-09-30T01:13:23;9.17;;;5.30;;
8337;SDS011;4206;48.634;9.516;2022-09-30T01:18:56;5.37;;;4.07;;
8337;SDS011;4206;48.634;9.516;2022-09-30T01:21:27;5.90;;;4.17;;
8337;SDS011;4206;48.634;9.516;2022-09-30T01:35:12;4.60;;;3.57;;
8337;SDS011;4206;48.634;9.516;2022-09-30T01:37:55;5.90;;;4.20;;
8337;SDS011;4206;48.634;9.516;2022-09-30T01:40:33;5.00;;;3.70;;
8337;SDS011;4206;48.634;9.516;2022-09-30T01:43:07;7.23;;;3.90;;
8337;SDS011;4206;48.634;9.516;2022-09-30T01:45:44;10.60;;;3.77;;
8337;SDS011;4206;48.634;9.516;2022-09-30T01:48:21;9.93;;;3.87;;
8337;SDS011;4206;48.634;9.516;2022-09-30T01:53:24;4.77;;;3.43;;
8337;SDS011;4206;48.634;9.516;2022-09-30T01:58:37;4.13;;;3.50;;
8337;SDS011;4206;48.634;9.516;2022-09-30T02:01:18;3.60;;;3.13;;
8337;SDS011;4206;48.634;9.516;2022-09-30T02:03:51;7.10;;;3.73;;
8337;SDS011;4206;48.634;9.516;2022-09-30T02:06:22;6.97;;;4.10;;
8337;SDS011;4206;48.634;9.516;2022-09-30T02:08:55;5.50;;;4.30;;
8337;SDS011;4206;48.634;9.516;2022-09-30T02:11:24;7.77;;;4.60;;
8337;SDS011;4206;48.634;9.516;2022-09-30T02:16:30;6.30;;;3.87;;
8337;SDS011;4206;48.634;9.516;2022-09-30T02:19:05;5.17;;;4.13;;
8337;SDS011;4206;48.634;9.516;2022-09-30T02:21:40;5.97;;;4.50;;
8337;SDS011;4206;48.634;9.516;2022-09-30T02:24:09;7.87;;;5.27;;
8337;SDS011;4206;48.634;9.516;2022-09-30T02:26:40;7.00;;;4.13;;
8337;SDS011;4206;48.634;9.516;2022-09-30T02:31:40;6.73;;;4.80;;
8337;SDS011;4206;48.634;9.516;2022-09-30T02:34:11;6.10;;;4.20;;
8337;SDS011;4206;48.634;9.516;2022-09-30T02:36:54;4.80;;;4.17;;
8337;SDS011;4206;48.634;9.516;2022-09-30T02:39:37;6.30;;;4.70;;
8337;SDS011;4206;48.634;9.516;2022-09-30T02:42:21;10.17;;;6.70;;
8337;SDS011;4206;48.634;9.516;2022-09-30T02:44:52;9.30;;;6.70;;
8337;SDS011;4206;48.634;9.516;2022-09-30T02:55:28;6.37;;;5.70;;
8337;SDS011;4206;48.634;9.516;2022-09-30T02:58:03;6.97;;;5.57;;
8337;SDS011;4206;48.634;9.516;2022-09-30T03:00:31;7.30;;;5.10;;
8337;SDS011;4206;48.634;9.516;2022-09-30T03:02:58;9.40;;;5.77;;
8337;SDS011;4206;48.634;9.516;2022-09-30T03:05:45;8.90;;;5.50;;
8337;SDS011;4206;48.634;9.516;2022-09-30T03:08:12;8.57;;;6.00;;
8337;SDS011;4206;48.634;9.516;2022-09-30T03:10:38;7.43;;;5.40;;
8337;SDS011;4206;48.634;9.516;2022-09-30T03:18:06;7.60;;;6.00;;
8337;SDS011;4206;48.634;9.516;2022-09-30T03:20:47;7.50;;;5.30;;
8337;SDS011;4206;48.634;9.516;2022-09-30T03:29:03;9.20;;;6.57;;
8337;SDS011;4206;48.634;9.516;2022-09-30T03:42:24;11.67;;;7.33;;
8337;SDS011;4206;48.634;9.516;2022-09-30T03:45:00;18.13;;;7.53;;
8337;SDS011;4206;48.634;9.516;2022-09-30T03:47:27;11.53;;;6.23;;
8337;SDS011;4206;48.634;9.516;2022-09-30T03:49:58;11.40;;;6.80;;
8337;SDS011;4206;48.634;9.516;2022-09-30T03:52:30;11.57;;;6.60;;
8337;SDS011;4206;48.634;9.516;2022-09-30T03:54:58;21.00;;;8.70;;
8337;SDS011;4206;48.634;9.516;2022-09-30T03:57:27;12.00;;;7.00;;
8337;SDS011;4206;48.634;9.516;2022-09-30T03:59:54;12.00;;;7.33;;
8337;SDS011;4206;48.634;9.516;2022-09-30T04:02:20;16.97;;;8.50;;
8337;SDS011;4206;48.634;9.516;2022-09-30T04:04:46;18.20;;;9.03;;
8337;SDS011;4206;48.634;9.516;2022-09-30T04:07:11;9.70;;;6.77;;
8337;SDS011;4206;48.634;9.516;2022-09-30T04:09:37;11.90;;;6.77;;
8337;SDS011;4206;48.634;9.516;2022-09-30T04:12:03;9.23;;;6.73;;
8337;SDS011;4206;48.634;9.516;2022-09-30T04:14:30;8.80;;;6.10;;
8337;SDS011;4206;48.634;9.516;2022-09-30T04:16:56;11.90;;;6.40;;
8337;SDS011;4206;48.634;9.516;2022-09-30T04:19:22;8.87;;;6.30;;
8337;SDS011;4206;48.634;9.516;2022-09-30T04:21:49;11.03;;;7.13;;
8337;SDS011;4206;48.634;9.516;2022-09-30T04:24:17;10.60;;;7.07;;
8337;SDS011;4206;48.634;9.516;2022-09-30T04:26:43;10.10;;;7.17;;
8337;SDS011;4206;48.634;9.516;2022-09-30T04:29:09;13.73;;;7.90;;
8337;SDS011;4206;48.634;9.516;2022-09-30T04:31:34;9.70;;;6.97;;
8337;SDS011;4206;48.634;9.516;2022-09-30T04:34:00;11.73;;;7.73;;
8337;SDS011;4206;48.634;9.516;2022-09-30T04:36:26;9.77;;;6.73;;
8337;SDS011;4206;48.634;9.516;2022-09-30T04:38:51;8.23;;;6.27;;
8337;SDS011;4206;48.634;9.516;2022-09-30T04:41:17;10.03;;;6.00;;
8337;SDS011;4206;48.634;9.516;2022-09-30T04:43:43;11.07;;;6.37;;
8337;SDS011;4206;48.634;9.516;2022-09-30T04:46:11;9.70;;;6.27;;
8337;SDS011;4206;48.634;9.516;2022-09-30T04:48:39;9.27;;;6.03;;
8337;SDS011;4206;48.634;9.516;2022-09-30T04:51:07;19.43;;;6.90;;
8337;SDS011;4206;48.634;9.516;2022-09-30T04:53:33;8.43;;;6.67;;
8337;SDS011;4206;48.634;9.516;2022-09-30T04:55:59;10.20;;;6.10;;
8337;SDS011;4206;48.634;9.516;2022-09-30T04:58:25;14.10;;;7.47;;
8337;SDS011;4206;48.634;9.516;2022-09-30T05:00:58;11.20;;;7.60;;
8337;SDS011;4206;48.634;9.516;2022-09-30T05:03:25;18.67;;;7.30;;
8337;SDS011;4206;48.634;9.516;2022-09-30T05:05:51;11.70;;;7.67;;
8337;SDS011;4206;48.634;9.516;2022-09-30T05:08:16;11.03;;;6.60;;
8337;SDS011;4206;48.634;9.516;2022-09-30T05:10:42;7.77;;;6.07;;
8337;SDS011;4206;48.634;9.516;2022-09-30T05:13:08;9.90;;;6.70;;
8337;SDS011;4206;48.634;9.516;2022-09-30T05:15:34;11.53;;;7.07;;
8337;SDS011;4206;48.634;9.516;2022-09-30T05:17:59;11.80;;;7.40;;
8337;SDS011;4206;48.634;9.516;2022-09-30T05:20:26;11.70;;;7.70;;
8337;SDS011;4206;48.634;9.516;2022-09-30T05:22:53;12.63;;;8.17;;
8337;SDS011;4206;48.634;9.516;2022-09-30T05:25:20;17.30;;;7.53;;
8337;SDS011;4206;48.634;9.516;2022-09-30T05:27:47;11.90;;;7.93;;
8337;SDS011;4206;48.634;9.516;2022-09-30T05:30:14;18.93;;;7.80;;
8337;SDS011;4206;48.634;9.516;2022-09-30T05:32:40;11.43;;;7.67;;
8337;SDS011;4206;48.634;9.516;2022-09-30T05:35:05;14.60;;;9.60;;
8337;SDS011;4206;48.634;9.516;2022-09-30T05:37:32;16.10;;;9.87;;
8337;SDS011;4206;48.634;9.516;2022-09-30T05:39:58;12.60;;;7.90;;
8337;SDS011;4206;48.634;9.516;2022-09-30T05:42:25;13.00;;;7.57;;
8337;SDS011;4206;48.634;9.516;2022-09-30T05:44:50;20.33;;;13.13;;
8337;SDS011;4206;48.634;9.516;2022-09-30T05:47:16;39.23;;;22.37;;
8337;SDS011;4206;48.634;9.516;2022-09-30T05:49:42;19.97;;;11.17;;
8337;SDS011;4206;48.634;9.516;2022-09-30T05:52:07;18.90;;;11.60;;
8337;SDS011;4206;48.634;9.516;2022-09-30T05:54:38;25.33;;;13.80;;
8337;SDS011;4206;48.634;9.516;2022-09-30T05:57:04;21.50;;;13.60;;
8337;SDS011;4206;48.634;9.516;2022-09-30T05:59:34;22.50;;;12.77;;
8337;SDS011;4206;48.634;9.516;2022-09-30T06:02:01;19.60;;;11.30;;
8337;SDS011;4206;48.634;9.516;2022-09-30T06:04:27;17.40;;;10.37;;
8337;SDS011;4206;48.634;9.516;2022-09-30T06:06:53;13.87;;;9.73;;
8337;SDS011;4206;48.634;9.516;2022-09-30T06:09:18;14.70;;;9.83;;
8337;SDS011;4206;48.634;9.516;2022-09-30T06:11:44;19.67;;;9.27;;
8337;SDS011;4206;48.634;9.516;2022-09-30T06:14:09;11.30;;;8.00;;
8337;SDS011;4206;48.634;9.516;2022-09-30T06:16:35;14.20;;;7.03;;
8337;SDS011;4206;48.634;9.516;2022-09-30T06:19:01;10.33;;;7.30;;
8337;SDS011;4206;48.634;9.516;2022-09-30T06:21:26;15.63;;;8.00;;
8337;SDS011;4206;48.634;9.516;2022-09-30T06:23:53;15.40;;;8.80;;
8337;SDS011;4206;48.634;9.516;2022-09-30T06:26:18;12.90;;;7.70;;
8337;SDS011;4206;48.634;9.516;2022-09-30T06:28:45;15.87;;;8.57;;
8337;SDS011;4206;48.634;9.516;2022-09-30T06:31:11;13.60;;;7.90;;
8337;SDS011;4206;48.634;9.516;2022-09-30T06:33:37;13.00;;;7.67;;
8337;SDS011;4206;48.634;9.516;2022-09-30T06:36:02;14.50;;;6.90;;
8337;SDS011;4206;48.634;9.516;2022-09-30T06:38:29;12.63;;;7.30;;
8337;SDS011;4206;48.634;9.516;2022-09-30T06:40:57;11.27;;;7.00;;
8337;SDS011;4206;48.634;9.516;2022-09-30T06:43:24;14.70;;;6.93;;
8337;SDS011;4206;48.634;9.516;2022-09-30T06:45:49;13.10;;;8.10;;
8337;SDS011;4206;48.634;9.516;2022-09-30T06:48:15;11.10;;;6.90;;
8337;SDS011;4206;48.634;9.516;2022-09-30T06:50:42;18.07;;;7.73;;
8337;SDS011;4206;48.634;9.516;2022-09-30T06:53:10;12.17;;;6.03;;
8337;SDS011;4206;48.634;9.516;2022-09-30T06:55:36;8.73;;;5.80;;
8337;SDS011;4206;48.634;9.516;2022-09-30T06:58:05;10.23;;;5.90;;
8337;SDS011;4206;48.634;9.516;2022-09-30T07:00:32;13.50;;;5.73;;
8337;SDS011;4206;48.634;9.516;2022-09-30T07:02:58;13.40;;;5.73;;
8337;SDS011;4206;48.634;9.516;2022-09-30T07:05:23;13.83;;;5.83;;
8337;SDS011;4206;48.634;9.516;2022-09-30T07:07:50;12.20;;;5.53;;
8337;SDS011;4206;48.634;9.516;2022-09-30T07:10:17;13.60;;;4.90;;
8337;SDS011;4206;48.634;9.516;2022-09-30T07:12:43;10.57;;;5.10;;
8337;SDS011;4206;48.634;9.516;2022-09-30T07:17:54;7.10;;;5.60;;
8337;SDS011;4206;48.634;9.516;2022-09-30T07:20:21;8.63;;;4.93;;
8337;SDS011;4206;48.634;9.516;2022-09-30T07:22:48;7.40;;;5.00;;
8337;SDS011;4206;48.634;9.516;2022-09-30T07:25:13;6.10;;;4.60;;
8337;SDS011;4206;48.634;9.516;2022-09-30T07:27:39;6.90;;;5.20;;
8337;SDS011;4206;48.634;9.516;2022-09-30T07:30:05;7.03;;;4.73;;
8337;SDS011;4206;48.634;9.516;2022-09-30T07:32:31;9.87;;;5.20;;
8337;SDS011;4206;48.634;9.516;2022-09-30T07:34:57;6.93;;;4.70;;
8337;SDS011;4206;48.634;9.516;2022-09-30T07:37:23;9.00;;;4.67;;
8337;SDS011;4206;48.634;9.516;2022-09-30T07:39:50;8.83;;;4.93;;
8337;SDS011;4206;48.634;9.516;2022-09-30T07:42:16;4.67;;;3.60;;
8337;SDS011;4206;48.634;9.516;2022-09-30T07:44:45;5.27;;;4.67;;
8337;SDS011;4206;48.634;9.516;2022-09-30T07:47:12;4.90;;;4.40;;
8337;SDS011;4206;48.634;9.516;2022-09-30T07:49:39;5.37;;;4.23;;
8337;SDS011;4206;48.634;9.516;2022-09-30T07:52:06;10.30;;;4.03;;
8337;SDS011;4206;48.634;9.516;2022-09-30T07:54:32;5.10;;;4.23;;
8337;SDS011;4206;48.634;9.516;2022-09-30T07:56:59;7.77;;;4.40;;
8337;SDS011;4206;48.634;9.516;2022-09-30T07:59:26;6.40;;;4.57;;
8337;SDS011;4206;48.634;9.516;2022-09-30T08:01:53;15.80;;;6.57;;
8337;SDS011;4206;48.634;9.516;2022-09-30T08:04:19;10.03;;;5.30;;
8337;SDS011;4206;48.634;9.516;2022-09-30T08:06:47;6.43;;;4.90;;
8337;SDS011;4206;48.634;9.516;2022-09-30T08:09:15;6.27;;;3.90;;
8337;SDS011;4206;48.634;9.516;2022-09-30T08:11:43;7.43;;;4.33;;
8337;SDS011;4206;48.634;9.516;2022-09-30T08:14:16;6.70;;;4.33;;
8337;SDS011;4206;48.634;9.516;2022-09-30T08:16:44;5.47;;;4.23;;
8337;SDS011;4206;48.634;9.516;2022-09-30T08:19:12;10.07;;;4.03;;
8337;SDS011;4206;48.634;9.516;2022-09-30T08:21:40;4.80;;;3.63;;
8337;SDS011;4206;48.634;9.516;2022-09-30T08:24:07;11.03;;;3.90;;
8337;SDS011;4206;48.634;9.516;2022-09-30T08:26:33;6.90;;;3.97;;
8337;SDS011;4206;48.634;9.516;2022-09-30T08:28:59;4.40;;;3.90;;
8337;SDS011;4206;48.634;9.516;2022-09-30T08:31:24;5.40;;;4.40;;
8337;SDS011;4206;48.634;9.516;2022-09-30T08:33:51;9.13;;;3.83;;
8337;SDS011;4206;48.634;9.516;2022-09-30T08:36:19;6.20;;;4.70;;
8337;SDS011;4206;48.634;9.516;2022-09-30T08:38:47;6.00;;;4.60;;
8337;SDS011;4206;48.634;9.516;2022-09-30T08:44:08;6.73;;;4.40;;
8337;SDS011;4206;48.634;9.516;2022-09-30T08:52:01;7.00;;;4.60;;
8337;SDS011;4206;48.634;9.516;2022-09-30T08:54:30;8.10;;;4.97;;
8337;SDS011;4206;48.634;9.516;2022-09-30T08:56:59;6.83;;;5.03;;
8337;SDS011;4206;48.634;9.516;2022-09-30T08:59:29;7.23;;;5.40;;
8337;SDS011;4206;48.634;9.516;2022-09-30T09:04:39;5.33;;;4.83;;
8337;SDS011;4206;48.634;9.516;2022-09-30T09:09:52;9.60;;;5.13;;
8337;SDS011;4206;48.634;9.516;2022-09-30T09:20:54;5.27;;;4.73;;
8337;SDS011;4206;48.634;9.516;2022-09-30T09:23:24;8.03;;;5.47;;
8337;SDS011;4206;48.634;9.516;2022-09-30T09:25:52;5.63;;;5.03;;
8337;SDS011;4206;48.634;9.516;2022-09-30T09:30:47;9.70;;;4.60;;
8337;SDS011;4206;48.634;9.516;2022-09-30T09:33:18;7.37;;;6.10;;
8337;SDS011;4206;48.634;9.516;2022-09-30T09:35:50;7.10;;;5.70;;
8337;SDS011;4206;48.634;9.516;2022-09-30T09:49:25;7.57;;;5.93;;
8337;SDS011;4206;48.634;9.516;2022-09-30T09:54:38;8.40;;;6.50;;
8337;SDS011;4206;48.634;9.516;2022-09-30T09:57:07;9.70;;;6.40;;
8337;SDS011;4206;48.634;9.516;2022-09-30T09:59:35;9.00;;;6.67;;
8337;SDS011;4206;48.634;9.516;2022-09-30T10:02:01;9.10;;;6.37;;
8337;SDS011;4206;48.634;9.516;2022-09-30T10:04:27;8.73;;;6.20;;
8337;SDS011;4206;48.634;9.516;2022-09-30T10:06:57;10.90;;;6.50;;
8337;SDS011;4206;48.634;9.516;2022-09-30T10:09:25;8.57;;;5.87;;
8337;SDS011;4206;48.634;9.516;2022-09-30T10:12:16;8.30;;;6.13;;
8337;SDS011;4206;48.634;9.516;2022-09-30T10:14:39;9.93;;;6.10;;
8337;SDS011;4206;48.634;9.516;2022-09-30T10:17:19;7.57;;;5.90;;
8337;SDS011;4206;48.634;9.516;2022-09-30T10:19:51;8.53;;;6.00;;
8337;SDS011;4206;48.634;9.516;2022-09-30T10:22:22;8.53;;;6.70;;
8337;SDS011;4206;48.634;9.516;2022-09-30T10:35:52;5.20;;;4.10;;
8337;SDS011;4206;48.634;9.516;2022-09-30T10:38:28;5.30;;;4.30;;
8337;SDS011;4206;48.634;9.516;2022-09-30T10:40:56;4.80;;;4.30;;
8337;SDS011;4206;48.634;9.516;2022-09-30T10:43:24;6.63;;;4.27;;
8337;SDS011;4206;48.634;9.516;2022-09-30T10:45:54;13.07;;;5.27;;
8337;SDS011;4206;48.634;9.516;2022-09-30T10:48:21;5.17;;;3.83;;
8337;SDS011;4206;48.634;9.516;2022-09-30T10:50:50;4.73;;;3.83;;
8337;SDS011;4206;48.634;9.516;2022-09-30T10:53:20;8.10;;;5.10;;
8337;SDS011;4206;48.634;9.516;2022-09-30T10:55:48;4.53;;;2.73;;
8337;SDS011;4206;48.634;9.516;2022-09-30T11:03:48;4.33;;;3.00;;
8337;SDS011;4206;48.634;9.516;2022-09-30T11:06:35;3.50;;;3.20;;
8337;SDS011;4206;48.634;9.516;2022-09-30T11:09:08;5.13;;;3.00;;
8337;SDS011;4206;48.634;9.516;2022-09-30T11:11:44;5.33;;;3.53;;
8337;SDS011;4206;48.634;9.516;2022-09-30T11:14:20;6.03;;;4.30;;
8337;SDS011;4206;48.634;9.516;2022-09-30T11:17:09;6.90;;;3.80;;
8337;SDS011;4206;48.634;9.516;2022-09-30T11:22:40;3.73;;;1.97;;
8337;SDS011;4206;48.634;9.516;2022-09-30T11:25:13;4.50;;;2.23;;
8337;SDS011;4206;48.634;9.516;2022-09-30T11:44:05;3.53;;;2.03;;
8337;SDS011;4206;48.634;9.516;2022-09-30T11:52:21;3.50;;;1.30;;
8337;SDS011;4206;48.634;9.516;2022-09-30T12:00:36;5.40;;;1.70;;
8337;SDS011;4206;48.634;9.516;2022-09-30T12:03:09;2.33;;;1.70;;
8337;SDS011;4206;48.634;9.516;2022-09-30T12:05:45;2.83;;;1.80;;
8337;SDS011;4206;48.634;9.516;2022-09-30T12:08:17;3.00;;;1.80;;
8337;SDS011;4206;48.634;9.516;2022-09-30T12:10:53;7.17;;;2.53;;
8337;SDS011;4206;48.634;9.516;2022-09-30T12:13:23;1.50;;;1.40;;
8337;SDS011;4206;48.634;9.516;2022-09-30T12:15:55;3.10;;;1.53;;
8337;SDS011;4206;48.634;9.516;2022-09-30T12:23:38;2.43;;;1.53;;
8337;SDS011;4206;48.634;9.516;2022-09-30T12:26:15;3.63;;;1.77;;
8337;SDS011;4206;48.634;9.516;2022-09-30T12:28:46;2.80;;;1.93;;
8337;SDS011;4206;48.634;9.516;2022-09-30T12:36:52;2.87;;;1.73;;
8337;SDS011;4206;48.634;9.516;2022-09-30T12:39:41;8.33;;;1.53;;
8337;SDS011;4206;48.634;9.516;2022-09-30T12:44:45;2.43;;;1.43;;
8337;SDS011;4206;48.634;9.516;2022-09-30T12:47:28;5.53;;;1.33;;
8337;SDS011;4206;48.634;9.516;2022-09-30T12:49:56;2.30;;;1.53;;
8337;SDS011;4206;48.634;9.516;2022-09-30T12:52:23;3.50;;;1.60;;
8337;SDS011;4206;48.634;9.516;2022-09-30T12:54:52;1.63;;;1.30;;
8337;SDS011;4206;48.634;9.516;2022-09-30T12:57:24;1.63;;;1.15;;
8337;SDS011;4206;48.634;9.516;2022-09-30T12:59:55;2.45;;;1.15;;
8337;SDS011;4206;48.634;9.516;2022-09-30T13:18:56;1.67;;;1.58;;
8337;SDS011;4206;48.634;9.516;2022-09-30T13:20:51;1.67;;;1.50;;
8337;SDS011;4206;48.634;9.516;2022-09-30T13:26:04;3.73;;;1.50;;
8337;SDS011;4206;48.634;9.516;2022-09-30T13:28:51;4.13;;;1.60;;
8337;SDS011;4206;48.634;9.516;2022-09-30T13:31:19;1.73;;;1.10;;
8337;SDS011;4206;48.634;9.516;2022-09-30T13:41:56;1.80;;;1.17;;
8337;SDS011;4206;48.634;9.516;2022-09-30T13:44:25;2.80;;;0.97;;
8337;SDS011;4206;48.634;9.516;2022-09-30T13:47:09;2.10;;;0.80;;
8337;SDS011;4206;48.634;9.516;2022-09-30T13:49:45;4.47;;;0.90;;
8337;SDS011;4206;48.634;9.516;2022-09-30T13:52:21;2.60;;;1.00;;
8337;SDS011;4206;48.634;9.516;2022-09-30T13:54:55;2.20;;;1.43;;
8337;SDS011;4206;48.634;9.516;2022-09-30T13:57:25;2.30;;;0.90;;
8337;SDS011;4206;48.634;9.516;2022-09-30T14:24:00;1.40;;;1.10;;
8337;SDS011;4206;48.634;9.516;2022-09-30T14:31:52;3.33;;;1.40;;
8337;SDS011;4206;48.634;9.516;2022-09-30T14:34:20;0.90;;;0.80;;
8337;SDS011;4206;48.634;9.516;2022-09-30T14:36:48;1.67;;;1.07;;
8337;SDS011;4206;48.634;9.516;2022-09-30T14:39:17;4.50;;;1.13;;
8337;SDS011;4206;48.634;9.516;2022-09-30T14:41:49;1.63;;;1.10;;
8337;SDS011;4206;48.634;9.516;2022-09-30T14:44:18;2.20;;;0.80;;
8337;SDS011;4206;48.634;9.516;2022-09-30T14:46:46;1.70;;;0.90;;
8337;SDS011;4206;48.634;9.516;2022-09-30T14:49:15;1.20;;;0.70;;
8337;SDS011;4206;48.634;9.516;2022-09-30T14:51:46;1.43;;;1.20;;
8337;SDS011;4206;48.634;9.516;2022-09-30T14:54:21;1.80;;;1.70;;
8337;SDS011;4206;48.634;9.516;2022-09-30T14:56:49;2.57;;;1.10;;
8337;SDS011;4206;48.634;9.516;2022-09-30T14:59:19;1.63;;;1.17;;
8337;SDS011;4206;48.634;9.516;2022-09-30T15:01:50;1.47;;;1.00;;
8337;SDS011;4206;48.634;9.516;2022-09-30T15:04:27;1.47;;;1.00;;
8337;SDS011;4206;48.634;9.516;2022-09-30T15:06:59;3.80;;;1.00;;
8337;SDS011;4206;48.634;9.516;2022-09-30T15:12:03;1.93;;;0.60;;
8337;SDS011;4206;48.634;9.516;2022-09-30T15:14:48;2.73;;;0.97;;
8337;SDS011;4206;48.634;9.516;2022-09-30T15:17:16;5.13;;;0.97;;
8337;SDS011;4206;48.634;9.516;2022-09-30T15:19:44;3.90;;;1.40;;
8337;SDS011;4206;48.634;9.516;2022-09-30T15:22:10;4.53;;;1.40;;
8337;SDS011;4206;48.634;9.516;2022-09-30T15:24:37;1.83;;;1.20;;
8337;SDS011;4206;48.634;9.516;2022-09-30T15:27:05;2.27;;;1.30;;
8337;SDS011;4206;48.634;9.516;2022-09-30T15:29:34;1.23;;;0.90;;
8337;SDS011;4206;48.634;9.516;2022-09-30T15:32:02;1.67;;;0.90;;
8337;SDS011;4206;48.634;9.516;2022-09-30T15:34:39;3.93;;;1.10;;
8337;SDS011;4206;48.634;9.516;2022-09-30T15:37:12;2.50;;;1.50;;
8337;SDS011;4206;48.634;9.516;2022-09-30T15:39:47;2.43;;;1.23;;
8337;SDS011;4206;48.634;9.516;2022-09-30T15:45:01;1.83;;;1.37;;
8337;SDS011;4206;48.634;9.516;2022-09-30T15:47:28;1.00;;;0.90;;
8337;SDS011;4206;48.634;9.516;2022-09-30T15:49:55;2.30;;;1.30;;
8337;SDS011;4206;48.634;9.516;2022-09-30T15:52:29;1.40;;;1.17;;
8337;SDS011;4206;48.634;9.516;2022-09-30T15:55:30;2.70;;;1.50;;
8337;SDS011;4206;48.634;9.516;2022-09-30T16:00:51;2.03;;;1.83;;
8337;SDS011;4206;48.634;9.516;2022-09-30T16:03:27;2.63;;;1.60;;
8337;SDS011;4206;48.634;9.516;2022-09-30T16:08:41;2.90;;;1.50;;
8337;SDS011;4206;48.634;9.516;2022-09-30T16:11:08;1.77;;;1.23;;
8337;SDS011;4206;48.634;9.516;2022-09-30T16:13:43;3.80;;;1.23;;
8337;SDS011;4206;48.634;9.516;2022-09-30T16:16:14;2.00;;;1.50;;
8337;SDS011;4206;48.634;9.516;2022-09-30T16:18:45;2.50;;;1.63;;
8337;SDS011;4206;48.634;9.516;2022-09-30T16:26:50;4.73;;;2.03;;
8337;SDS011;4206;48.634;9.516;2022-09-30T16:29:16;3.60;;;2.00;;
8337;SDS011;4206;48.634;9.516;2022-09-30T16:31:43;4.83;;;1.83;;
8337;SDS011;4206;48.634;9.516;2022-09-30T16:34:18;1.60;;;1.33;;
8337;SDS011;4206;48.634;9.516;2022-09-30T16:36:47;3.23;;;1.90;;
8337;SDS011;4206;48.634;9.516;2022-09-30T16:39:14;3.43;;;1.80;;
8337;SDS011;4206;48.634;9.516;2022-09-30T16:41:41;2.67;;;1.77;;
8337;SDS011;4206;48.634;9.516;2022-09-30T16:44:07;1.80;;;1.70;;
8337;SDS011;4206;48.634;9.516;2022-09-30T16:46:33;3.63;;;2.00;;
8337;SDS011;4206;48.634;9.516;2022-09-30T16:48:59;2.10;;;1.80;;
8337;SDS011;4206;48.634;9.516;2022-09-30T16:51:36;3.27;;;2.50;;
8337;SDS011;4206;48.634;9.516;2022-09-30T16:54:02;6.17;;;3.00;;
8337;SDS011;4206;48.634;9.516;2022-09-30T16:56:28;5.03;;;2.10;;
8337;SDS011;4206;48.634;9.516;2022-09-30T16:58:54;7.63;;;2.50;;
8337;SDS011;4206;48.634;9.516;2022-09-30T17:01:20;2.43;;;1.60;;
8337;SDS011;4206;48.634;9.516;2022-09-30T17:03:48;3.17;;;1.93;;
8337;SDS011;4206;48.634;9.516;2022-09-30T17:06:14;1.60;;;1.47;;
8337;SDS011;4206;48.634;9.516;2022-09-30T17:08:41;3.80;;;2.37;;
8337;SDS011;4206;48.634;9.516;2022-09-30T17:11:07;7.93;;;4.20;;
8337;SDS011;4206;48.634;9.516;2022-09-30T17:13:35;6.60;;;3.50;;
8337;SDS011;4206;48.634;9.516;2022-09-30T17:16:01;8.90;;;4.77;;
8337;SDS011;4206;48.634;9.516;2022-09-30T17:18:26;9.00;;;5.17;;
8337;SDS011;4206;48.634;9.516;2022-09-30T17:20:52;11.00;;;4.90;;
8337;SDS011;4206;48.634;9.516;2022-09-30T17:23:19;9.33;;;5.23;;
8337;SDS011;4206;48.634;9.516;2022-09-30T17:25:45;4.60;;;3.67;;
8337;SDS011;4206;48.634;9.516;2022-09-30T17:28:12;6.77;;;3.10;;
8337;SDS011;4206;48.634;9.516;2022-09-30T17:30:38;4.67;;;3.23;;
8337;SDS011;4206;48.634;9.516;2022-09-30T17:33:05;4.20;;;2.80;;
8337;SDS011;4206;48.634;9.516;2022-09-30T17:35:35;5.67;;;3.57;;
8337;SDS011;4206;48.634;9.516;2022-09-30T17:38:10;6.90;;;3.03;;
8337;SDS011;4206;48.634;9.516;2022-09-30T17:40:36;5.37;;;3.73;;
8337;SDS011;4206;48.634;9.516;2022-09-30T17:43:18;12.53;;;3.60;;
8337;SDS011;4206;48.634;9.516;2022-09-30T17:45:44;7.07;;;5.27;;
8337;SDS011;4206;48.634;9.516;2022-09-30T17:48:11;6.73;;;3.83;;
8337;SDS011;4206;48.634;9.516;2022-09-30T17:50:39;7.93;;;4.07;;
8337;SDS011;4206;48.634;9.516;2022-09-30T17:53:08;6.33;;;4.50;;
8337;SDS011;4206;48.634;9.516;2022-09-30T17:55:37;11.07;;;4.40;;
8337;SDS011;4206;48.634;9.516;2022-09-30T17:58:03;10.43;;;5.23;;
8337;SDS011;4206;48.634;9.516;2022-09-30T18:00:31;10.43;;;5.07;;
8337;SDS011;4206;48.634;9.516;2022-09-30T18:02:57;9.17;;;5.10;;
8337;SDS011;4206;48.634;9.516;2022-09-30T18:05:23;11.87;;;5.10;;
8337;SDS011;4206;48.634;9.516;2022-09-30T18:07:51;11.80;;;5.37;;
8337;SDS011;4206;48.634;9.516;2022-09-30T18:10:16;7.70;;;5.53;;
8337;SDS011;4206;48.634;9.516;2022-09-30T18:12:42;11.57;;;6.30;;
8337;SDS011;4206;48.634;9.516;2022-09-30T18:15:11;15.73;;;6.23;;
8337;SDS011;4206;48.634;9.516;2022-09-30T18:17:37;9.43;;;5.70;;
8337;SDS011;4206;48.634;9.516;2022-09-30T18:20:02;11.53;;;6.47;;
8337;SDS011;4206;48.634;9.516;2022-09-30T18:22:29;9.13;;;6.00;;
8337;SDS011;4206;48.634;9.516;2022-09-30T18:24:54;9.70;;;5.87;;
8337;SDS011;4206;48.634;9.516;2022-09-30T18:27:35;13.87;;;6.27;;
8337;SDS011;4206;48.634;9.516;2022-09-30T18:30:01;11.07;;;6.97;;
8337;SDS011;4206;48.634;9.516;2022-09-30T18:32:29;8.23;;;5.53;;
8337;SDS011;4206;48.634;9.516;2022-09-30T18:34:55;12.50;;;6.33;;
8337;SDS011;4206;48.634;9.516;2022-09-30T18:37:21;10.47;;;5.73;;
8337;SDS011;4206;48.634;9.516;2022-09-30T18:39:48;13.90;;;5.80;;
8337;SDS011;4206;48.634;9.516;2022-09-30T18:42:13;12.33;;;6.30;;
8337;SDS011;4206;48.634;9.516;2022-09-30T18:44:46;12.80;;;5.93;;
8337;SDS011;4206;48.634;9.516;2022-09-30T18:47:12;8.90;;;6.47;;
8337;SDS011;4206;48.634;9.516;2022-09-30T18:49:41;10.50;;;6.47;;
8337;SDS011;4206;48.634;9.516;2022-09-30T18:52:07;13.97;;;6.70;;
8337;SDS011;4206;48.634;9.516;2022-09-30T18:54:32;12.67;;;6.57;;
8337;SDS011;4206;48.634;9.516;2022-09-30T18:56:58;15.00;;;6.73;;
8337;SDS011;4206;48.634;9.516;2022-09-30T18:59:24;16.30;;;7.00;;
8337;SDS011;4206;48.634;9.516;2022-09-30T19:01:50;12.60;;;6.80;;
8337;SDS011;4206;48.634;9.516;2022-09-30T19:04:16;11.20;;;7.00;;
8337;SDS011;4206;48.634;9.516;2022-09-30T19:06:42;14.83;;;7.23;;
8337;SDS011;4206;48.634;9.516;2022-09-30T19:09:09;13.87;;;7.63;;
8337;SDS011;4206;48.634;9.516;2022-09-30T19:11:35;10.43;;;6.80;;
8337;SDS011;4206;48.634;9.516;2022-09-30T19:14:01;14.13;;;8.33;;